# Nome Data de Inscrição Valor Total da Dívida
1 ALEXANDRA MEROLA DE MELO.+ 14/04/2014 89,76
2 SONIA APARECIDA DE OLIVEIRA - GOIANA. 14/04/2014 0,00
3 AGROAMBIENTAL PROJETOS CONSULTORIA. 14/04/2014 0,00
4 COMERCIAL JESUS & JESUS LTDA+ 14/04/2014 381,37
5 FARMASHOPP COMERCIO VAREJISTA DE MEDICAMENTOS LTDA ME. 14/04/2014 0,00
6 CONSTRUTORA WALDO MEIRELES LTDA. 14/04/2014 0,00
7 EURIPEDES MARTINS DA SILVA & CIA.LTDA+. 14/04/2014 381,37
8 CONCRETA ASSES.EMPRESARIAL LTDA. 14/04/2014 0,00
9 MARIA APARECIDA DE OLIVEIRA IV. 14/04/2014 3.788,75
10 SILVIA REGINA LOPES GOMES+ 14/04/2014 0,00
11 TRANS BARBARA LTDA. 14/04/2014 0,00
12 M DO SOCORRO CRUZ SILVA. 14/04/2014 0,00
13 JOAO PEREIRA DA SILVA FILHO+ 14/04/2014 99,46
14 H V COMERCIO DE PNEUS LTDA.+ 14/04/2014 0,00
15 GOMES & SILVA LTDA. 14/04/2014 0,00
16 LUCIANO JOSE SANCHES. 14/04/2014 0,00
17 DALTON CARDOSO DOS SANTOS+ 14/04/2014 381,37
18 TRANS CANUTO LTDA. 14/04/2014 0,00
19 CONSTRUTORA JS & JM LTDA. 14/04/2014 0,00
20 LUCIENE PEREIRA NETO+ 14/04/2014 590,99
21 NEURI GOMES DO NASCIMENTO. 14/04/2014 0,00
22 MULT PEDRAS D & D LTDA. 14/04/2014 0,00
23 MANTO IMPERMEABILIZACAO E SERVICOS LTDA. 14/04/2014 0,00
24 MARCUS AURELIO SILVA+ 14/04/2014 387,46
25 COOPERATIVA DOS AGRICULT. DA REGIAO DE ORLANDIA. 14/04/2014 0,00
26 DEUSIMAR FERREIRA BARBOSA+ 14/04/2014 0,00
27 MARIA ROSALINA ARRUDA DE JESUS.+ 14/04/2014 0,00
28 TRANSPORTADORA CRUZ DE MALTA LTDA. 14/04/2014 0,00
29 TELECOMUNICACOES DO VALE DO RIO. 14/04/2014 0,00
30 PENA BRANCA COM.E REPRES. FERTILIZANTES LTDA. 14/04/2014 0,00
31 OSVALDO PINTO DE AVELAR.* 14/04/2014 0,00
32 BOOM BEST LTDA.+ 14/04/2014 387,46
33 RICARDO SANTA ROSA NETTO. 14/04/2014 0,00
34 CARPINTARIA BELCHIOR LTDA. 14/04/2014 0,00
35 AUTO MECANICA UNICAR LTDA. 14/04/2014 0,00
36 CELEIRO ESTACIONAMENTO E PÁTIO CATALÃO LTDA 14/04/2014 0,00
37 LUCIANA PRUDENTE NEVES+ 14/04/2014 0,00
38 IVANA M.NAHA S.DUARTE. 14/04/2014 0,00
39 BIOSFERA CONTROLE AMBIENTAL LTDA. 14/04/2014 0,00
40 NOGUEIRA TRANSPORTE E TURISMO LTDA.+ 14/04/2014 0,00
41 GECONT ASSESSORIA CONTABIL LTDA. 14/04/2014 0,00
42 CONAGUA AMBIENTAL LTDA. 14/04/2014 0,00
43 FRANCISCO SANTANA JUNIOR. 14/04/2014 0,00
44 COPYSYSTEMS - COPIADORAS SISTEMAS E SERVICOS LTDA. 14/04/2014 0,00
45 NEWCO PROGRAMADORA E PRODUTORA. 14/04/2014 0,00
46 PLUS-SERVICE TRABALHO TEMPORARIO LTDA. 14/04/2014 0,00
47 JOAO LUIZ PETRUS+ 14/04/2014 381,37
48 WELLINGTON DOS SANTOS.+ 14/04/2014 1.323,87
49 TECGEN INDUSTRIA E COMERCIO DE MATERIAIS ELETRICOS LTDA. 14/04/2014 0,00
50 METALURGICA CAVAGI LTDA. 14/04/2014 0,00

Nosso site pode utilizar cookies e tecnologias semelhantes para melhorar sua experiência ao navegar, bem como providenciar alguns recursos essenciais. Ao continuar acessando, você concorda com a nossa Política de Privacidade, Termos de Uso e Cookies.